sensor_id;sensor_type;location;lat;lon;timestamp;P1;durP1;ratioP1;P2;durP2;ratioP2
2874;SDS011;1445;52.600;13.328;2023-04-30T00:01:38;6.15;;;1.80;;
2874;SDS011;1445;52.600;13.328;2023-04-30T00:04:03;4.75;;;1.92;;
2874;SDS011;1445;52.600;13.328;2023-04-30T00:06:29;6.38;;;2.17;;
2874;SDS011;1445;52.600;13.328;2023-04-30T00:08:55;4.65;;;1.60;;
2874;SDS011;1445;52.600;13.328;2023-04-30T00:11:20;4.05;;;1.75;;
2874;SDS011;1445;52.600;13.328;2023-04-30T00:13:46;5.55;;;1.58;;
2874;SDS011;1445;52.600;13.328;2023-04-30T00:16:11;2.67;;;1.60;;
2874;SDS011;1445;52.600;13.328;2023-04-30T00:18:37;3.10;;;1.70;;
2874;SDS011;1445;52.600;13.328;2023-04-30T00:21:02;4.25;;;1.65;;
2874;SDS011;1445;52.600;13.328;2023-04-30T00:23:28;6.90;;;1.67;;
2874;SDS011;1445;52.600;13.328;2023-04-30T00:25:54;3.90;;;1.80;;
2874;SDS011;1445;52.600;13.328;2023-04-30T00:28:19;5.57;;;1.90;;
2874;SDS011;1445;52.600;13.328;2023-04-30T00:30:45;3.80;;;1.35;;
2874;SDS011;1445;52.600;13.328;2023-04-30T00:33:10;6.13;;;2.17;;
2874;SDS011;1445;52.600;13.328;2023-04-30T00:35:36;4.82;;;1.70;;
2874;SDS011;1445;52.600;13.328;2023-04-30T00:38:01;5.22;;;2.60;;
2874;SDS011;1445;52.600;13.328;2023-04-30T00:40:26;4.00;;;1.80;;
2874;SDS011;1445;52.600;13.328;2023-04-30T00:42:52;4.07;;;1.70;;
2874;SDS011;1445;52.600;13.328;2023-04-30T00:45:20;2.88;;;1.73;;
2874;SDS011;1445;52.600;13.328;2023-04-30T00:47:48;3.42;;;1.70;;
2874;SDS011;1445;52.600;13.328;2023-04-30T00:50:14;3.88;;;2.17;;
2874;SDS011;1445;52.600;13.328;2023-04-30T00:52:40;4.45;;;2.15;;
2874;SDS011;1445;52.600;13.328;2023-04-30T00:55:07;5.95;;;2.78;;
2874;SDS011;1445;52.600;13.328;2023-04-30T00:57:33;5.38;;;2.35;;
2874;SDS011;1445;52.600;13.328;2023-04-30T01:00:00;8.52;;;2.15;;
2874;SDS011;1445;52.600;13.328;2023-04-30T01:02:26;5.15;;;2.10;;
2874;SDS011;1445;52.600;13.328;2023-04-30T01:04:51;5.22;;;2.33;;
2874;SDS011;1445;52.600;13.328;2023-04-30T01:07:17;4.35;;;2.05;;
2874;SDS011;1445;52.600;13.328;2023-04-30T01:09:42;5.38;;;1.95;;
2874;SDS011;1445;52.600;13.328;2023-04-30T01:12:09;6.80;;;2.47;;
2874;SDS011;1445;52.600;13.328;2023-04-30T01:17:46;8.38;;;3.63;;
2874;SDS011;1445;52.600;13.328;2023-04-30T01:20:20;4.80;;;2.38;;
2874;SDS011;1445;52.600;13.328;2023-04-30T01:30:21;6.45;;;2.25;;
2874;SDS011;1445;52.600;13.328;2023-04-30T01:32:49;5.05;;;2.47;;
2874;SDS011;1445;52.600;13.328;2023-04-30T01:35:14;5.97;;;2.50;;
2874;SDS011;1445;52.600;13.328;2023-04-30T01:40:26;10.40;;;2.80;;
2874;SDS011;1445;52.600;13.328;2023-04-30T01:43:11;6.95;;;2.60;;
2874;SDS011;1445;52.600;13.328;2023-04-30T01:51:08;5.22;;;2.75;;
2874;SDS011;1445;52.600;13.328;2023-04-30T01:53:41;6.05;;;2.38;;
2874;SDS011;1445;52.600;13.328;2023-04-30T01:56:11;7.32;;;2.60;;
2874;SDS011;1445;52.600;13.328;2023-04-30T01:58:45;6.03;;;2.50;;
2874;SDS011;1445;52.600;13.328;2023-04-30T02:01:29;4.07;;;2.53;;
2874;SDS011;1445;52.600;13.328;2023-04-30T02:03:56;6.47;;;2.42;;
2874;SDS011;1445;52.600;13.328;2023-04-30T02:06:25;8.80;;;2.60;;
2874;SDS011;1445;52.600;13.328;2023-04-30T02:08:55;11.05;;;3.58;;
2874;SDS011;1445;52.600;13.328;2023-04-30T02:13:51;6.40;;;2.88;;
2874;SDS011;1445;52.600;13.328;2023-04-30T02:16:17;12.00;;;2.90;;
2874;SDS011;1445;52.600;13.328;2023-04-30T02:18:43;5.85;;;2.38;;
2874;SDS011;1445;52.600;13.328;2023-04-30T02:21:09;10.88;;;2.58;;
2874;SDS011;1445;52.600;13.328;2023-04-30T02:23:35;7.03;;;2.55;;
2874;SDS011;1445;52.600;13.328;2023-04-30T02:26:00;5.35;;;2.75;;
2874;SDS011;1445;52.600;13.328;2023-04-30T02:28:27;4.45;;;2.42;;
2874;SDS011;1445;52.600;13.328;2023-04-30T02:30:52;5.03;;;2.50;;
2874;SDS011;1445;52.600;13.328;2023-04-30T02:33:17;7.72;;;3.53;;
2874;SDS011;1445;52.600;13.328;2023-04-30T02:35:43;7.13;;;3.80;;
2874;SDS011;1445;52.600;13.328;2023-04-30T02:38:08;7.68;;;3.40;;
2874;SDS011;1445;52.600;13.328;2023-04-30T02:40:34;5.40;;;3.55;;
2874;SDS011;1445;52.600;13.328;2023-04-30T02:42:59;7.93;;;3.35;;
2874;SDS011;1445;52.600;13.328;2023-04-30T02:45:25;5.43;;;2.92;;
2874;SDS011;1445;52.600;13.328;2023-04-30T02:47:51;11.30;;;3.92;;
2874;SDS011;1445;52.600;13.328;2023-04-30T02:50:16;7.70;;;3.78;;
2874;SDS011;1445;52.600;13.328;2023-04-30T02:52:43;7.13;;;3.30;;
2874;SDS011;1445;52.600;13.328;2023-04-30T02:55:10;8.88;;;4.13;;
2874;SDS011;1445;52.600;13.328;2023-04-30T02:57:35;9.52;;;3.25;;
2874;SDS011;1445;52.600;13.328;2023-04-30T03:00:01;10.52;;;4.43;;
2874;SDS011;1445;52.600;13.328;2023-04-30T03:02:26;7.97;;;3.72;;
2874;SDS011;1445;52.600;13.328;2023-04-30T03:04:52;8.07;;;3.22;;
2874;SDS011;1445;52.600;13.328;2023-04-30T03:07:17;6.43;;;3.40;;
2874;SDS011;1445;52.600;13.328;2023-04-30T03:09:43;4.85;;;2.60;;
2874;SDS011;1445;52.600;13.328;2023-04-30T03:12:08;5.80;;;2.70;;
2874;SDS011;1445;52.600;13.328;2023-04-30T03:14:33;7.03;;;3.42;;
2874;SDS011;1445;52.600;13.328;2023-04-30T03:16:59;7.43;;;3.17;;
2874;SDS011;1445;52.600;13.328;2023-04-30T03:19:24;6.00;;;3.20;;
2874;SDS011;1445;52.600;13.328;2023-04-30T03:21:50;6.63;;;3.17;;
2874;SDS011;1445;52.600;13.328;2023-04-30T03:24:16;6.68;;;3.33;;
2874;SDS011;1445;52.600;13.328;2023-04-30T03:26:42;7.65;;;3.10;;
2874;SDS011;1445;52.600;13.328;2023-04-30T03:29:08;8.75;;;3.40;;
2874;SDS011;1445;52.600;13.328;2023-04-30T03:31:33;7.43;;;3.20;;
2874;SDS011;1445;52.600;13.328;2023-04-30T03:33:58;8.80;;;4.07;;
2874;SDS011;1445;52.600;13.328;2023-04-30T03:36:24;4.20;;;2.85;;
2874;SDS011;1445;52.600;13.328;2023-04-30T03:38:50;6.32;;;3.42;;
2874;SDS011;1445;52.600;13.328;2023-04-30T03:41:16;8.35;;;3.42;;
2874;SDS011;1445;52.600;13.328;2023-04-30T03:43:41;8.80;;;3.92;;
2874;SDS011;1445;52.600;13.328;2023-04-30T03:46:06;8.55;;;3.67;;
2874;SDS011;1445;52.600;13.328;2023-04-30T03:48:32;5.35;;;3.20;;
2874;SDS011;1445;52.600;13.328;2023-04-30T03:50:57;8.80;;;3.35;;
2874;SDS011;1445;52.600;13.328;2023-04-30T03:53:23;7.57;;;3.38;;
2874;SDS011;1445;52.600;13.328;2023-04-30T03:55:50;5.75;;;3.72;;
2874;SDS011;1445;52.600;13.328;2023-04-30T03:58:16;5.55;;;3.55;;
2874;SDS011;1445;52.600;13.328;2023-04-30T04:00:41;8.48;;;3.60;;
2874;SDS011;1445;52.600;13.328;2023-04-30T04:03:09;7.95;;;3.55;;
2874;SDS011;1445;52.600;13.328;2023-04-30T04:05:35;10.90;;;3.92;;
2874;SDS011;1445;52.600;13.328;2023-04-30T04:08:01;12.55;;;4.95;;
2874;SDS011;1445;52.600;13.328;2023-04-30T04:10:26;8.40;;;4.07;;
2874;SDS011;1445;52.600;13.328;2023-04-30T04:12:51;7.95;;;3.28;;
2874;SDS011;1445;52.600;13.328;2023-04-30T04:15:17;6.00;;;3.60;;
2874;SDS011;1445;52.600;13.328;2023-04-30T04:17:42;7.00;;;3.70;;
2874;SDS011;1445;52.600;13.328;2023-04-30T04:20:08;8.35;;;3.60;;
2874;SDS011;1445;52.600;13.328;2023-04-30T04:22:34;10.60;;;4.20;;
2874;SDS011;1445;52.600;13.328;2023-04-30T04:24:59;8.45;;;3.53;;
2874;SDS011;1445;52.600;13.328;2023-04-30T04:27:25;9.30;;;4.13;;
2874;SDS011;1445;52.600;13.328;2023-04-30T04:29:50;10.55;;;3.90;;
2874;SDS011;1445;52.600;13.328;2023-04-30T04:32:16;7.80;;;4.38;;
2874;SDS011;1445;52.600;13.328;2023-04-30T04:34:42;10.30;;;4.13;;
2874;SDS011;1445;52.600;13.328;2023-04-30T04:37:07;8.65;;;4.28;;
2874;SDS011;1445;52.600;13.328;2023-04-30T04:39:34;7.95;;;4.45;;
2874;SDS011;1445;52.600;13.328;2023-04-30T04:42:01;7.97;;;4.75;;
2874;SDS011;1445;52.600;13.328;2023-04-30T04:44:27;7.07;;;3.70;;
2874;SDS011;1445;52.600;13.328;2023-04-30T04:46:53;7.00;;;3.67;;
2874;SDS011;1445;52.600;13.328;2023-04-30T04:49:18;12.40;;;4.53;;
2874;SDS011;1445;52.600;13.328;2023-04-30T04:51:44;8.18;;;3.80;;
2874;SDS011;1445;52.600;13.328;2023-04-30T04:54:10;6.97;;;4.10;;
2874;SDS011;1445;52.600;13.328;2023-04-30T04:56:35;6.72;;;3.80;;
2874;SDS011;1445;52.600;13.328;2023-04-30T04:59:01;11.43;;;4.43;;
2874;SDS011;1445;52.600;13.328;2023-04-30T05:01:26;8.18;;;5.18;;
2874;SDS011;1445;52.600;13.328;2023-04-30T05:03:52;8.57;;;4.00;;
2874;SDS011;1445;52.600;13.328;2023-04-30T05:06:18;6.85;;;4.00;;
2874;SDS011;1445;52.600;13.328;2023-04-30T05:08:43;10.65;;;4.40;;
2874;SDS011;1445;52.600;13.328;2023-04-30T05:11:09;11.95;;;4.57;;
2874;SDS011;1445;52.600;13.328;2023-04-30T05:13:34;8.38;;;4.13;;
2874;SDS011;1445;52.600;13.328;2023-04-30T05:16:00;11.57;;;4.03;;
2874;SDS011;1445;52.600;13.328;2023-04-30T05:18:25;8.65;;;4.25;;
2874;SDS011;1445;52.600;13.328;2023-04-30T05:20:51;8.00;;;4.05;;
2874;SDS011;1445;52.600;13.328;2023-04-30T05:23:16;7.88;;;3.53;;
2874;SDS011;1445;52.600;13.328;2023-04-30T05:25:42;9.27;;;3.90;;
2874;SDS011;1445;52.600;13.328;2023-04-30T05:28:07;12.57;;;4.22;;
2874;SDS011;1445;52.600;13.328;2023-04-30T05:30:33;8.90;;;3.80;;
2874;SDS011;1445;52.600;13.328;2023-04-30T05:32:58;9.50;;;3.72;;
2874;SDS011;1445;52.600;13.328;2023-04-30T05:35:23;8.25;;;4.63;;
2874;SDS011;1445;52.600;13.328;2023-04-30T05:37:49;12.32;;;4.75;;
2874;SDS011;1445;52.600;13.328;2023-04-30T05:40:14;9.85;;;4.05;;
2874;SDS011;1445;52.600;13.328;2023-04-30T05:42:41;9.57;;;4.00;;
2874;SDS011;1445;52.600;13.328;2023-04-30T05:45:08;9.65;;;3.63;;
2874;SDS011;1445;52.600;13.328;2023-04-30T05:47:34;9.60;;;3.60;;
2874;SDS011;1445;52.600;13.328;2023-04-30T05:49:59;10.50;;;3.50;;
2874;SDS011;1445;52.600;13.328;2023-04-30T05:52:25;6.88;;;3.67;;
2874;SDS011;1445;52.600;13.328;2023-04-30T05:54:50;6.88;;;3.92;;
2874;SDS011;1445;52.600;13.328;2023-04-30T05:57:16;6.00;;;3.20;;
2874;SDS011;1445;52.600;13.328;2023-04-30T05:59:41;11.68;;;4.65;;
2874;SDS011;1445;52.600;13.328;2023-04-30T06:02:07;5.35;;;3.05;;
2874;SDS011;1445;52.600;13.328;2023-04-30T06:04:33;8.48;;;3.20;;
2874;SDS011;1445;52.600;13.328;2023-04-30T06:06:58;12.20;;;3.38;;
2874;SDS011;1445;52.600;13.328;2023-04-30T06:09:24;10.23;;;3.30;;
2874;SDS011;1445;52.600;13.328;2023-04-30T06:11:49;8.88;;;3.20;;
2874;SDS011;1445;52.600;13.328;2023-04-30T06:14:19;7.00;;;3.42;;
2874;SDS011;1445;52.600;13.328;2023-04-30T06:16:46;11.02;;;4.13;;
2874;SDS011;1445;52.600;13.328;2023-04-30T06:19:12;9.55;;;3.85;;
2874;SDS011;1445;52.600;13.328;2023-04-30T06:21:37;10.48;;;3.60;;
2874;SDS011;1445;52.600;13.328;2023-04-30T06:24:03;12.15;;;3.13;;
2874;SDS011;1445;52.600;13.328;2023-04-30T06:26:29;10.05;;;3.17;;
2874;SDS011;1445;52.600;13.328;2023-04-30T06:28:54;5.15;;;3.10;;
2874;SDS011;1445;52.600;13.328;2023-04-30T06:31:20;6.93;;;2.72;;
2874;SDS011;1445;52.600;13.328;2023-04-30T06:33:46;7.35;;;2.92;;
2874;SDS011;1445;52.600;13.328;2023-04-30T06:36:11;6.85;;;3.05;;
2874;SDS011;1445;52.600;13.328;2023-04-30T06:38:37;7.63;;;2.72;;
2874;SDS011;1445;52.600;13.328;2023-04-30T06:41:02;5.65;;;2.65;;
2874;SDS011;1445;52.600;13.328;2023-04-30T06:43:28;9.02;;;3.28;;
2874;SDS011;1445;52.600;13.328;2023-04-30T06:45:53;8.20;;;3.20;;
2874;SDS011;1445;52.600;13.328;2023-04-30T06:48:18;6.32;;;3.50;;
2874;SDS011;1445;52.600;13.328;2023-04-30T06:50:44;9.73;;;3.17;;
2874;SDS011;1445;52.600;13.328;2023-04-30T06:53:13;9.65;;;3.67;;
2874;SDS011;1445;52.600;13.328;2023-04-30T06:55:43;8.27;;;2.65;;
2874;SDS011;1445;52.600;13.328;2023-04-30T06:58:09;6.80;;;3.15;;
2874;SDS011;1445;52.600;13.328;2023-04-30T07:00:34;5.47;;;2.80;;
2874;SDS011;1445;52.600;13.328;2023-04-30T07:03:00;9.32;;;2.90;;
2874;SDS011;1445;52.600;13.328;2023-04-30T07:05:30;10.00;;;3.17;;
2874;SDS011;1445;52.600;13.328;2023-04-30T07:07:56;8.93;;;2.88;;
2874;SDS011;1445;52.600;13.328;2023-04-30T07:10:23;7.07;;;3.10;;
2874;SDS011;1445;52.600;13.328;2023-04-30T07:12:48;9.95;;;2.85;;
2874;SDS011;1445;52.600;13.328;2023-04-30T07:15:14;6.93;;;2.75;;
2874;SDS011;1445;52.600;13.328;2023-04-30T07:17:39;9.77;;;3.10;;
2874;SDS011;1445;52.600;13.328;2023-04-30T07:20:06;8.35;;;3.42;;
2874;SDS011;1445;52.600;13.328;2023-04-30T07:22:32;6.30;;;3.13;;
2874;SDS011;1445;52.600;13.328;2023-04-30T07:24:58;7.00;;;3.40;;
2874;SDS011;1445;52.600;13.328;2023-04-30T07:27:25;9.75;;;3.22;;
2874;SDS011;1445;52.600;13.328;2023-04-30T07:29:53;7.40;;;3.28;;
2874;SDS011;1445;52.600;13.328;2023-04-30T07:32:19;9.60;;;2.70;;
2874;SDS011;1445;52.600;13.328;2023-04-30T07:34:45;6.72;;;2.65;;
2874;SDS011;1445;52.600;13.328;2023-04-30T07:37:10;9.25;;;2.70;;
2874;SDS011;1445;52.600;13.328;2023-04-30T07:39:36;7.15;;;2.70;;
2874;SDS011;1445;52.600;13.328;2023-04-30T07:42:02;6.43;;;2.80;;
2874;SDS011;1445;52.600;13.328;2023-04-30T07:44:28;7.63;;;3.65;;
2874;SDS011;1445;52.600;13.328;2023-04-30T07:46:54;8.13;;;2.88;;
2874;SDS011;1445;52.600;13.328;2023-04-30T07:49:20;11.27;;;2.90;;
2874;SDS011;1445;52.600;13.328;2023-04-30T07:51:45;4.38;;;2.58;;
2874;SDS011;1445;52.600;13.328;2023-04-30T07:54:11;6.35;;;2.88;;
2874;SDS011;1445;52.600;13.328;2023-04-30T07:56:36;5.63;;;2.30;;
2874;SDS011;1445;52.600;13.328;2023-04-30T07:59:02;7.32;;;2.50;;
2874;SDS011;1445;52.600;13.328;2023-04-30T08:01:27;5.75;;;2.80;;
2874;SDS011;1445;52.600;13.328;2023-04-30T08:03:53;4.47;;;2.30;;
2874;SDS011;1445;52.600;13.328;2023-04-30T08:06:18;5.25;;;1.90;;
2874;SDS011;1445;52.600;13.328;2023-04-30T08:08:44;6.03;;;2.30;;
2874;SDS011;1445;52.600;13.328;2023-04-30T08:11:10;9.38;;;2.33;;
2874;SDS011;1445;52.600;13.328;2023-04-30T08:13:36;5.22;;;2.42;;
2874;SDS011;1445;52.600;13.328;2023-04-30T08:16:02;6.80;;;3.58;;
2874;SDS011;1445;52.600;13.328;2023-04-30T08:18:28;3.40;;;1.50;;
2874;SDS011;1445;52.600;13.328;2023-04-30T08:20:53;4.65;;;1.80;;
2874;SDS011;1445;52.600;13.328;2023-04-30T08:23:19;4.40;;;1.88;;
2874;SDS011;1445;52.600;13.328;2023-04-30T08:25:44;5.97;;;2.28;;
2874;SDS011;1445;52.600;13.328;2023-04-30T08:28:10;4.53;;;2.10;;
2874;SDS011;1445;52.600;13.328;2023-04-30T08:30:35;5.22;;;2.53;;
2874;SDS011;1445;52.600;13.328;2023-04-30T08:33:01;5.13;;;2.47;;
2874;SDS011;1445;52.600;13.328;2023-04-30T08:35:26;3.92;;;2.00;;
2874;SDS011;1445;52.600;13.328;2023-04-30T08:37:53;6.32;;;2.25;;
2874;SDS011;1445;52.600;13.328;2023-04-30T08:40:19;5.60;;;2.45;;
2874;SDS011;1445;52.600;13.328;2023-04-30T08:42:45;5.78;;;2.45;;
2874;SDS011;1445;52.600;13.328;2023-04-30T08:45:17;4.30;;;1.95;;
2874;SDS011;1445;52.600;13.328;2023-04-30T08:47:44;3.22;;;2.03;;
2874;SDS011;1445;52.600;13.328;2023-04-30T08:50:09;5.68;;;2.10;;
2874;SDS011;1445;52.600;13.328;2023-04-30T08:52:35;4.60;;;2.00;;
2874;SDS011;1445;52.600;13.328;2023-04-30T08:55:02;4.78;;;2.22;;
2874;SDS011;1445;52.600;13.328;2023-04-30T08:57:31;4.82;;;1.70;;
2874;SDS011;1445;52.600;13.328;2023-04-30T08:59:57;4.00;;;1.73;;
2874;SDS011;1445;52.600;13.328;2023-04-30T09:02:22;3.60;;;1.80;;
2874;SDS011;1445;52.600;13.328;2023-04-30T09:04:48;3.83;;;2.00;;
2874;SDS011;1445;52.600;13.328;2023-04-30T09:07:13;4.05;;;1.92;;
2874;SDS011;1445;52.600;13.328;2023-04-30T09:09:39;5.72;;;1.70;;
2874;SDS011;1445;52.600;13.328;2023-04-30T09:14:38;3.23;;;1.93;;
2874;SDS011;1445;52.600;13.328;2023-04-30T09:17:04;6.03;;;1.70;;
2874;SDS011;1445;52.600;13.328;2023-04-30T09:19:30;8.38;;;2.10;;
2874;SDS011;1445;52.600;13.328;2023-04-30T09:21:55;3.67;;;1.95;;
2874;SDS011;1445;52.600;13.328;2023-04-30T09:24:21;3.53;;;1.80;;
2874;SDS011;1445;52.600;13.328;2023-04-30T09:26:47;6.85;;;2.13;;
2874;SDS011;1445;52.600;13.328;2023-04-30T09:29:13;3.95;;;2.00;;
2874;SDS011;1445;52.600;13.328;2023-04-30T09:31:41;5.65;;;2.03;;
2874;SDS011;1445;52.600;13.328;2023-04-30T09:34:09;4.35;;;2.30;;
2874;SDS011;1445;52.600;13.328;2023-04-30T09:36:34;5.45;;;2.00;;
2874;SDS011;1445;52.600;13.328;2023-04-30T09:39:10;5.20;;;2.45;;
2874;SDS011;1445;52.600;13.328;2023-04-30T09:41:37;4.93;;;2.22;;
2874;SDS011;1445;52.600;13.328;2023-04-30T09:44:03;5.65;;;2.83;;
2874;SDS011;1445;52.600;13.328;2023-04-30T09:46:32;3.85;;;2.30;;
2874;SDS011;1445;52.600;13.328;2023-04-30T09:48:59;4.85;;;2.15;;
2874;SDS011;1445;52.600;13.328;2023-04-30T09:51:29;5.38;;;2.20;;
2874;SDS011;1445;52.600;13.328;2023-04-30T09:53:55;4.30;;;2.20;;
2874;SDS011;1445;52.600;13.328;2023-04-30T09:56:24;6.50;;;2.30;;
2874;SDS011;1445;52.600;13.328;2023-04-30T09:58:51;4.93;;;2.63;;
2874;SDS011;1445;52.600;13.328;2023-04-30T10:01:19;5.25;;;2.47;;
2874;SDS011;1445;52.600;13.328;2023-04-30T10:03:46;5.28;;;2.25;;
2874;SDS011;1445;52.600;13.328;2023-04-30T10:06:13;5.03;;;2.53;;
2874;SDS011;1445;52.600;13.328;2023-04-30T10:08:44;7.90;;;2.33;;
2874;SDS011;1445;52.600;13.328;2023-04-30T10:11:13;3.38;;;2.25;;
2874;SDS011;1445;52.600;13.328;2023-04-30T10:19:27;4.43;;;2.13;;
2874;SDS011;1445;52.600;13.328;2023-04-30T10:21:56;4.55;;;2.10;;
2874;SDS011;1445;52.600;13.328;2023-04-30T10:24:21;5.00;;;2.10;;
2874;SDS011;1445;52.600;13.328;2023-04-30T10:26:47;4.75;;;2.42;;
2874;SDS011;1445;52.600;13.328;2023-04-30T10:29:14;3.65;;;2.03;;
2874;SDS011;1445;52.600;13.328;2023-04-30T10:31:41;5.00;;;2.65;;
2874;SDS011;1445;52.600;13.328;2023-04-30T10:36:56;4.95;;;2.00;;
2874;SDS011;1445;52.600;13.328;2023-04-30T10:39:26;4.05;;;1.83;;
2874;SDS011;1445;52.600;13.328;2023-04-30T10:42:05;3.83;;;1.85;;
2874;SDS011;1445;52.600;13.328;2023-04-30T10:44:31;4.30;;;2.05;;
2874;SDS011;1445;52.600;13.328;2023-04-30T10:46:59;3.38;;;1.65;;
2874;SDS011;1445;52.600;13.328;2023-04-30T10:49:28;4.53;;;2.30;;
2874;SDS011;1445;52.600;13.328;2023-04-30T10:51:55;3.00;;;2.08;;
2874;SDS011;1445;52.600;13.328;2023-04-30T10:54:28;4.25;;;2.05;;
2874;SDS011;1445;52.600;13.328;2023-04-30T11:02:37;4.13;;;2.15;;
2874;SDS011;1445;52.600;13.328;2023-04-30T11:05:11;4.65;;;2.38;;
2874;SDS011;1445;52.600;13.328;2023-04-30T11:07:51;5.20;;;2.28;;
2874;SDS011;1445;52.600;13.328;2023-04-30T11:10:21;4.75;;;2.20;;
2874;SDS011;1445;52.600;13.328;2023-04-30T11:12:49;4.28;;;1.80;;
2874;SDS011;1445;52.600;13.328;2023-04-30T11:15:17;8.95;;;2.45;;
2874;SDS011;1445;52.600;13.328;2023-04-30T11:17:44;4.68;;;1.80;;
2874;SDS011;1445;52.600;13.328;2023-04-30T11:20:13;3.00;;;1.60;;
2874;SDS011;1445;52.600;13.328;2023-04-30T11:22:43;4.80;;;2.03;;
2874;SDS011;1445;52.600;13.328;2023-04-30T11:25:09;5.07;;;2.00;;
2874;SDS011;1445;52.600;13.328;2023-04-30T11:27:37;5.60;;;2.40;;
2874;SDS011;1445;52.600;13.328;2023-04-30T11:30:15;3.65;;;2.00;;
2874;SDS011;1445;52.600;13.328;2023-04-30T11:32:42;4.15;;;1.90;;
2874;SDS011;1445;52.600;13.328;2023-04-30T11:35:12;3.85;;;2.03;;
2874;SDS011;1445;52.600;13.328;2023-04-30T11:37:42;5.35;;;1.70;;
2874;SDS011;1445;52.600;13.328;2023-04-30T11:40:09;4.90;;;2.10;;
2874;SDS011;1445;52.600;13.328;2023-04-30T11:42:39;4.43;;;2.17;;
2874;SDS011;1445;52.600;13.328;2023-04-30T11:45:11;6.72;;;2.03;;
2874;SDS011;1445;52.600;13.328;2023-04-30T11:47:41;4.57;;;2.20;;
2874;SDS011;1445;52.600;13.328;2023-04-30T11:50:11;4.35;;;2.08;;
2874;SDS011;1445;52.600;13.328;2023-04-30T11:52:38;4.60;;;2.33;;
2874;SDS011;1445;52.600;13.328;2023-04-30T11:55:05;4.20;;;2.00;;
2874;SDS011;1445;52.600;13.328;2023-04-30T12:00:09;4.90;;;2.10;;
2874;SDS011;1445;52.600;13.328;2023-04-30T12:02:35;3.80;;;2.28;;
2874;SDS011;1445;52.600;13.328;2023-04-30T12:05:01;3.45;;;2.05;;
2874;SDS011;1445;52.600;13.328;2023-04-30T12:07:26;3.35;;;1.83;;
2874;SDS011;1445;52.600;13.328;2023-04-30T12:09:55;4.28;;;2.05;;
2874;SDS011;1445;52.600;13.328;2023-04-30T12:12:30;4.78;;;2.53;;
2874;SDS011;1445;52.600;13.328;2023-04-30T12:14:55;3.88;;;1.98;;
2874;SDS011;1445;52.600;13.328;2023-04-30T12:17:31;4.65;;;2.10;;
2874;SDS011;1445;52.600;13.328;2023-04-30T12:20:00;5.07;;;2.10;;
2874;SDS011;1445;52.600;13.328;2023-04-30T12:22:26;5.13;;;1.90;;
2874;SDS011;1445;52.600;13.328;2023-04-30T12:24:53;4.68;;;2.10;;
2874;SDS011;1445;52.600;13.328;2023-04-30T12:27:20;3.47;;;2.10;;
2874;SDS011;1445;52.600;13.328;2023-04-30T12:29:46;4.70;;;1.92;;
2874;SDS011;1445;52.600;13.328;2023-04-30T12:32:13;5.47;;;2.63;;
2874;SDS011;1445;52.600;13.328;2023-04-30T12:34:43;5.07;;;1.75;;
2874;SDS011;1445;52.600;13.328;2023-04-30T12:37:09;4.70;;;2.03;;
2874;SDS011;1445;52.600;13.328;2023-04-30T12:39:35;3.15;;;1.88;;
2874;SDS011;1445;52.600;13.328;2023-04-30T12:42:01;4.25;;;2.20;;
2874;SDS011;1445;52.600;13.328;2023-04-30T12:44:28;5.60;;;2.47;;
2874;SDS011;1445;52.600;13.328;2023-04-30T12:46:57;4.18;;;2.08;;
2874;SDS011;1445;52.600;13.328;2023-04-30T12:49:44;6.18;;;2.38;;
2874;SDS011;1445;52.600;13.328;2023-04-30T12:52:11;3.42;;;1.90;;
2874;SDS011;1445;52.600;13.328;2023-04-30T12:54:38;4.80;;;2.58;;
2874;SDS011;1445;52.600;13.328;2023-04-30T12:57:04;4.05;;;2.20;;
2874;SDS011;1445;52.600;13.328;2023-04-30T12:59:39;2.83;;;1.98;;
2874;SDS011;1445;52.600;13.328;2023-04-30T13:02:22;4.40;;;2.00;;
2874;SDS011;1445;52.600;13.328;2023-04-30T13:04:48;6.80;;;2.40;;
2874;SDS011;1445;52.600;13.328;2023-04-30T13:07:15;4.13;;;1.80;;
2874;SDS011;1445;52.600;13.328;2023-04-30T13:09:40;5.63;;;2.05;;
2874;SDS011;1445;52.600;13.328;2023-04-30T13:12:06;5.35;;;2.50;;
2874;SDS011;1445;52.600;13.328;2023-04-30T13:14:31;6.00;;;2.80;;
2874;SDS011;1445;52.600;13.328;2023-04-30T13:16:57;5.85;;;2.20;;
2874;SDS011;1445;52.600;13.328;2023-04-30T13:19:22;4.03;;;1.92;;
2874;SDS011;1445;52.600;13.328;2023-04-30T13:21:48;4.93;;;2.00;;
2874;SDS011;1445;52.600;13.328;2023-04-30T13:24:13;4.10;;;1.70;;
2874;SDS011;1445;52.600;13.328;2023-04-30T13:26:40;5.07;;;1.95;;
2874;SDS011;1445;52.600;13.328;2023-04-30T13:29:05;5.93;;;2.42;;
2874;SDS011;1445;52.600;13.328;2023-04-30T13:31:31;5.07;;;2.10;;
2874;SDS011;1445;52.600;13.328;2023-04-30T13:33:56;4.65;;;2.05;;
2874;SDS011;1445;52.600;13.328;2023-04-30T13:36:22;5.45;;;2.08;;
2874;SDS011;1445;52.600;13.328;2023-04-30T13:38:47;3.85;;;2.00;;
2874;SDS011;1445;52.600;13.328;2023-04-30T13:41:13;6.40;;;2.13;;
2874;SDS011;1445;52.600;13.328;2023-04-30T13:43:39;4.68;;;2.20;;
2874;SDS011;1445;52.600;13.328;2023-04-30T13:46:06;4.63;;;2.28;;
2874;SDS011;1445;52.600;13.328;2023-04-30T13:48:32;5.70;;;2.08;;
2874;SDS011;1445;52.600;13.328;2023-04-30T13:50:58;3.30;;;2.00;;
2874;SDS011;1445;52.600;13.328;2023-04-30T13:53:24;3.67;;;1.92;;
2874;SDS011;1445;52.600;13.328;2023-04-30T13:55:53;3.63;;;1.80;;
2874;SDS011;1445;52.600;13.328;2023-04-30T13:58:19;4.78;;;1.77;;
2874;SDS011;1445;52.600;13.328;2023-04-30T14:00:44;3.00;;;1.90;;
2874;SDS011;1445;52.600;13.328;2023-04-30T14:03:10;4.53;;;2.00;;
2874;SDS011;1445;52.600;13.328;2023-04-30T14:05:36;4.65;;;2.10;;
2874;SDS011;1445;52.600;13.328;2023-04-30T14:08:03;4.03;;;2.08;;
2874;SDS011;1445;52.600;13.328;2023-04-30T14:10:29;5.70;;;2.42;;
2874;SDS011;1445;52.600;13.328;2023-04-30T14:13:00;3.95;;;1.95;;
2874;SDS011;1445;52.600;13.328;2023-04-30T14:15:26;6.75;;;2.50;;
2874;SDS011;1445;52.600;13.328;2023-04-30T14:17:54;3.83;;;2.00;;
2874;SDS011;1445;52.600;13.328;2023-04-30T14:20:19;4.47;;;2.30;;
2874;SDS011;1445;52.600;13.328;2023-04-30T14:22:45;4.32;;;2.17;;
2874;SDS011;1445;52.600;13.328;2023-04-30T14:25:10;5.25;;;2.10;;
2874;SDS011;1445;52.600;13.328;2023-04-30T14:27:36;2.35;;;1.67;;
2874;SDS011;1445;52.600;13.328;2023-04-30T14:30:02;6.43;;;2.35;;
2874;SDS011;1445;52.600;13.328;2023-04-30T14:32:28;4.78;;;1.90;;
2874;SDS011;1445;52.600;13.328;2023-04-30T14:34:53;4.25;;;2.05;;
2874;SDS011;1445;52.600;13.328;2023-04-30T14:37:19;3.30;;;1.67;;
2874;SDS011;1445;52.600;13.328;2023-04-30T14:39:44;3.72;;;1.80;;
2874;SDS011;1445;52.600;13.328;2023-04-30T14:42:10;4.30;;;1.88;;
2874;SDS011;1445;52.600;13.328;2023-04-30T14:44:38;3.15;;;1.80;;
2874;SDS011;1445;52.600;13.328;2023-04-30T14:47:04;2.97;;;1.60;;
2874;SDS011;1445;52.600;13.328;2023-04-30T14:49:29;3.45;;;2.08;;
2874;SDS011;1445;52.600;13.328;2023-04-30T14:51:55;4.53;;;2.10;;
2874;SDS011;1445;52.600;13.328;2023-04-30T14:54:20;3.78;;;1.83;;
2874;SDS011;1445;52.600;13.328;2023-04-30T14:56:46;3.53;;;2.17;;
2874;SDS011;1445;52.600;13.328;2023-04-30T14:59:12;4.57;;;1.98;;
2874;SDS011;1445;52.600;13.328;2023-04-30T15:01:37;5.55;;;1.80;;
2874;SDS011;1445;52.600;13.328;2023-04-30T15:04:03;3.70;;;1.88;;
2874;SDS011;1445;52.600;13.328;2023-04-30T15:06:29;5.00;;;2.13;;
2874;SDS011;1445;52.600;13.328;2023-04-30T15:08:54;4.57;;;2.00;;
2874;SDS011;1445;52.600;13.328;2023-04-30T15:11:20;5.45;;;1.95;;
2874;SDS011;1445;52.600;13.328;2023-04-30T15:13:45;3.83;;;1.90;;
2874;SDS011;1445;52.600;13.328;2023-04-30T15:16:11;3.60;;;2.10;;
2874;SDS011;1445;52.600;13.328;2023-04-30T15:18:36;4.72;;;1.90;;
2874;SDS011;1445;52.600;13.328;2023-04-30T15:21:02;3.35;;;1.98;;
2874;SDS011;1445;52.600;13.328;2023-04-30T15:23:27;4.47;;;1.92;;
2874;SDS011;1445;52.600;13.328;2023-04-30T15:25:54;3.00;;;1.88;;
2874;SDS011;1445;52.600;13.328;2023-04-30T15:28:19;3.03;;;1.95;;
2874;SDS011;1445;52.600;13.328;2023-04-30T15:30:50;3.13;;;1.58;;
2874;SDS011;1445;52.600;13.328;2023-04-30T15:33:18;3.67;;;2.22;;
2874;SDS011;1445;52.600;13.328;2023-04-30T15:35:44;3.03;;;1.60;;
2874;SDS011;1445;52.600;13.328;2023-04-30T15:38:11;2.63;;;1.75;;